sensor_id;sensor_type;location;lat;lon;timestamp;P1;durP1;ratioP1;P2;durP2;ratioP2
3034;SDS011;1527;48.836;9.172;2022-08-14T00:00:43;5.30;;;4.80;;
3034;SDS011;1527;48.836;9.172;2022-08-14T00:03:19;7.82;;;5.65;;
3034;SDS011;1527;48.836;9.172;2022-08-14T00:05:56;5.70;;;5.13;;
3034;SDS011;1527;48.836;9.172;2022-08-14T00:08:40;5.75;;;5.35;;
3034;SDS011;1527;48.836;9.172;2022-08-14T00:11:11;6.05;;;5.43;;
3034;SDS011;1527;48.836;9.172;2022-08-14T00:13:43;6.35;;;5.55;;
3034;SDS011;1527;48.836;9.172;2022-08-14T00:16:20;5.68;;;5.10;;
3034;SDS011;1527;48.836;9.172;2022-08-14T00:19:09;5.78;;;5.28;;
3034;SDS011;1527;48.836;9.172;2022-08-14T00:21:47;7.35;;;5.25;;
3034;SDS011;1527;48.836;9.172;2022-08-14T00:24:17;8.60;;;5.20;;
3034;SDS011;1527;48.836;9.172;2022-08-14T00:26:55;5.57;;;5.07;;
3034;SDS011;1527;48.836;9.172;2022-08-14T00:29:29;5.13;;;4.63;;
3034;SDS011;1527;48.836;9.172;2022-08-14T00:32:08;5.82;;;5.28;;
3034;SDS011;1527;48.836;9.172;2022-08-14T00:34:59;8.55;;;5.22;;
3034;SDS011;1527;48.836;9.172;2022-08-14T00:37:28;7.30;;;5.65;;
3034;SDS011;1527;48.836;9.172;2022-08-14T00:39:59;5.30;;;4.90;;
3034;SDS011;1527;48.836;9.172;2022-08-14T00:42:45;5.97;;;5.43;;
3034;SDS011;1527;48.836;9.172;2022-08-14T00:45:22;5.72;;;5.18;;
3034;SDS011;1527;48.836;9.172;2022-08-14T00:47:58;6.20;;;5.65;;
3034;SDS011;1527;48.836;9.172;2022-08-14T00:50:27;6.65;;;5.40;;
3034;SDS011;1527;48.836;9.172;2022-08-14T00:52:57;5.53;;;5.03;;
3034;SDS011;1527;48.836;9.172;2022-08-14T00:55:27;6.57;;;5.55;;
3034;SDS011;1527;48.836;9.172;2022-08-14T00:58:02;5.38;;;4.88;;
3034;SDS011;1527;48.836;9.172;2022-08-14T01:00:59;5.35;;;4.95;;
3034;SDS011;1527;48.836;9.172;2022-08-14T01:03:34;6.90;;;5.38;;
3034;SDS011;1527;48.836;9.172;2022-08-14T01:06:10;5.15;;;4.75;;
3034;SDS011;1527;48.836;9.172;2022-08-14T01:08:44;7.40;;;5.30;;
3034;SDS011;1527;48.836;9.172;2022-08-14T01:11:25;5.82;;;4.97;;
3034;SDS011;1527;48.836;9.172;2022-08-14T01:14:02;6.45;;;5.40;;
3034;SDS011;1527;48.836;9.172;2022-08-14T01:16:52;5.68;;;5.22;;
3034;SDS011;1527;48.836;9.172;2022-08-14T01:19:23;5.75;;;5.25;;
3034;SDS011;1527;48.836;9.172;2022-08-14T01:22:14;5.82;;;5.32;;
3034;SDS011;1527;48.836;9.172;2022-08-14T01:24:45;6.10;;;5.47;;
3034;SDS011;1527;48.836;9.172;2022-08-14T01:27:17;10.13;;;5.65;;
3034;SDS011;1527;48.836;9.172;2022-08-14T01:29:51;6.00;;;5.50;;
3034;SDS011;1527;48.836;9.172;2022-08-14T01:32:30;8.93;;;5.50;;
3034;SDS011;1527;48.836;9.172;2022-08-14T01:35:17;6.03;;;4.95;;
3034;SDS011;1527;48.836;9.172;2022-08-14T01:38:08;6.25;;;5.43;;
3034;SDS011;1527;48.836;9.172;2022-08-14T01:40:44;5.97;;;5.10;;
3034;SDS011;1527;48.836;9.172;2022-08-14T01:43:15;5.82;;;5.32;;
3034;SDS011;1527;48.836;9.172;2022-08-14T01:45:48;9.43;;;6.30;;
3034;SDS011;1527;48.836;9.172;2022-08-14T01:48:32;8.52;;;5.90;;
3034;SDS011;1527;48.836;9.172;2022-08-14T01:51:04;6.07;;;5.15;;
3034;SDS011;1527;48.836;9.172;2022-08-14T01:53:48;6.78;;;6.18;;
3034;SDS011;1527;48.836;9.172;2022-08-14T01:56:21;8.15;;;5.20;;
3034;SDS011;1527;48.836;9.172;2022-08-14T01:59:06;5.95;;;5.35;;
3034;SDS011;1527;48.836;9.172;2022-08-14T02:01:44;6.18;;;5.57;;
3034;SDS011;1527;48.836;9.172;2022-08-14T02:04:26;6.07;;;5.50;;
3034;SDS011;1527;48.836;9.172;2022-08-14T02:07:17;6.43;;;5.78;;
3034;SDS011;1527;48.836;9.172;2022-08-14T02:10:08;6.90;;;6.30;;
3034;SDS011;1527;48.836;9.172;2022-08-14T02:12:42;5.80;;;5.30;;
3034;SDS011;1527;48.836;9.172;2022-08-14T02:15:23;6.38;;;5.78;;
3034;SDS011;1527;48.836;9.172;2022-08-14T02:17:53;5.90;;;5.40;;
3034;SDS011;1527;48.836;9.172;2022-08-14T02:20:22;6.18;;;5.53;;
3034;SDS011;1527;48.836;9.172;2022-08-14T02:22:51;6.20;;;5.60;;
3034;SDS011;1527;48.836;9.172;2022-08-14T02:25:22;7.10;;;5.22;;
3034;SDS011;1527;48.836;9.172;2022-08-14T02:27:57;6.18;;;5.40;;
3034;SDS011;1527;48.836;9.172;2022-08-14T02:30:46;7.03;;;6.00;;
3034;SDS011;1527;48.836;9.172;2022-08-14T02:33:19;6.03;;;5.47;;
3034;SDS011;1527;48.836;9.172;2022-08-14T02:35:49;6.80;;;5.18;;
3034;SDS011;1527;48.836;9.172;2022-08-14T02:38:39;5.97;;;5.38;;
3034;SDS011;1527;48.836;9.172;2022-08-14T02:41:11;5.82;;;5.38;;
3034;SDS011;1527;48.836;9.172;2022-08-14T02:43:42;5.32;;;4.88;;
3034;SDS011;1527;48.836;9.172;2022-08-14T02:46:14;6.25;;;5.75;;
3034;SDS011;1527;48.836;9.172;2022-08-14T02:48:53;6.75;;;5.63;;
3034;SDS011;1527;48.836;9.172;2022-08-14T02:51:32;6.00;;;5.50;;
3034;SDS011;1527;48.836;9.172;2022-08-14T02:54:03;5.78;;;5.18;;
3034;SDS011;1527;48.836;9.172;2022-08-14T02:56:47;6.60;;;5.95;;
3034;SDS011;1527;48.836;9.172;2022-08-14T02:59:36;6.32;;;5.38;;
3034;SDS011;1527;48.836;9.172;2022-08-14T03:02:09;6.80;;;5.95;;
3034;SDS011;1527;48.836;9.172;2022-08-14T03:04:59;6.50;;;6.00;;
3034;SDS011;1527;48.836;9.172;2022-08-14T03:07:28;6.82;;;5.80;;
3034;SDS011;1527;48.836;9.172;2022-08-14T03:09:57;5.93;;;5.43;;
3034;SDS011;1527;48.836;9.172;2022-08-14T03:12:49;8.48;;;6.05;;
3034;SDS011;1527;48.836;9.172;2022-08-14T03:15:18;9.13;;;6.10;;
3034;SDS011;1527;48.836;9.172;2022-08-14T03:17:48;6.70;;;5.10;;
3034;SDS011;1527;48.836;9.172;2022-08-14T03:20:24;5.97;;;5.28;;
3034;SDS011;1527;48.836;9.172;2022-08-14T03:22:55;6.50;;;5.90;;
3034;SDS011;1527;48.836;9.172;2022-08-14T03:25:30;6.20;;;5.43;;
3034;SDS011;1527;48.836;9.172;2022-08-14T03:28:05;9.65;;;6.03;;
3034;SDS011;1527;48.836;9.172;2022-08-14T03:30:56;6.15;;;5.57;;
3034;SDS011;1527;48.836;9.172;2022-08-14T03:33:26;8.07;;;5.40;;
3034;SDS011;1527;48.836;9.172;2022-08-14T03:36:07;6.57;;;5.93;;
3034;SDS011;1527;48.836;9.172;2022-08-14T03:39:01;6.75;;;5.88;;
3034;SDS011;1527;48.836;9.172;2022-08-14T03:41:48;9.07;;;6.05;;
3034;SDS011;1527;48.836;9.172;2022-08-14T03:44:21;7.20;;;5.35;;
3034;SDS011;1527;48.836;9.172;2022-08-14T03:47:12;6.43;;;5.88;;
3034;SDS011;1527;48.836;9.172;2022-08-14T03:49:42;6.75;;;6.15;;
3034;SDS011;1527;48.836;9.172;2022-08-14T03:52:16;7.75;;;6.03;;
3034;SDS011;1527;48.836;9.172;2022-08-14T03:55:06;8.57;;;5.90;;
3034;SDS011;1527;48.836;9.172;2022-08-14T03:57:39;7.25;;;5.65;;
3034;SDS011;1527;48.836;9.172;2022-08-14T04:00:12;5.95;;;5.43;;
3034;SDS011;1527;48.836;9.172;2022-08-14T04:03:03;6.50;;;5.90;;
3034;SDS011;1527;48.836;9.172;2022-08-14T04:05:35;6.47;;;5.93;;
3034;SDS011;1527;48.836;9.172;2022-08-14T04:08:15;7.00;;;6.28;;
3034;SDS011;1527;48.836;9.172;2022-08-14T04:10:57;7.57;;;6.45;;
3034;SDS011;1527;48.836;9.172;2022-08-14T04:13:29;7.97;;;6.90;;
3034;SDS011;1527;48.836;9.172;2022-08-14T04:16:02;6.30;;;5.70;;
3034;SDS011;1527;48.836;9.172;2022-08-14T04:18:39;6.82;;;6.20;;
3034;SDS011;1527;48.836;9.172;2022-08-14T04:21:10;7.82;;;7.05;;
3034;SDS011;1527;48.836;9.172;2022-08-14T04:23:42;6.70;;;6.00;;
3034;SDS011;1527;48.836;9.172;2022-08-14T04:26:23;7.03;;;6.18;;
3034;SDS011;1527;48.836;9.172;2022-08-14T04:29:09;8.23;;;5.68;;
3034;SDS011;1527;48.836;9.172;2022-08-14T04:31:43;6.40;;;5.90;;
3034;SDS011;1527;48.836;9.172;2022-08-14T04:34:34;9.05;;;6.72;;
3034;SDS011;1527;48.836;9.172;2022-08-14T04:37:08;8.75;;;6.05;;
3034;SDS011;1527;48.836;9.172;2022-08-14T04:39:55;8.95;;;6.95;;
3034;SDS011;1527;48.836;9.172;2022-08-14T04:42:42;7.40;;;6.20;;
3034;SDS011;1527;48.836;9.172;2022-08-14T04:45:28;8.00;;;7.20;;
3034;SDS011;1527;48.836;9.172;2022-08-14T04:48:08;7.07;;;6.47;;
3034;SDS011;1527;48.836;9.172;2022-08-14T04:50:39;7.85;;;6.40;;
3034;SDS011;1527;48.836;9.172;2022-08-14T04:53:20;5.82;;;5.22;;
3034;SDS011;1527;48.836;9.172;2022-08-14T04:56:02;9.60;;;6.30;;
3034;SDS011;1527;48.836;9.172;2022-08-14T04:58:53;8.50;;;6.18;;
3034;SDS011;1527;48.836;9.172;2022-08-14T05:01:28;7.22;;;6.25;;
3034;SDS011;1527;48.836;9.172;2022-08-14T05:04:07;7.30;;;6.57;;
3034;SDS011;1527;48.836;9.172;2022-08-14T05:06:42;7.50;;;6.70;;
3034;SDS011;1527;48.836;9.172;2022-08-14T05:09:15;9.05;;;6.55;;
3034;SDS011;1527;48.836;9.172;2022-08-14T05:11:47;6.95;;;6.25;;
3034;SDS011;1527;48.836;9.172;2022-08-14T05:14:17;6.38;;;5.78;;
3034;SDS011;1527;48.836;9.172;2022-08-14T05:17:08;7.70;;;6.90;;
3034;SDS011;1527;48.836;9.172;2022-08-14T05:19:39;7.68;;;6.97;;
3034;SDS011;1527;48.836;9.172;2022-08-14T05:22:30;7.03;;;6.30;;
3034;SDS011;1527;48.836;9.172;2022-08-14T05:24:59;6.78;;;5.90;;
3034;SDS011;1527;48.836;9.172;2022-08-14T05:27:30;8.15;;;6.07;;
3034;SDS011;1527;48.836;9.172;2022-08-14T05:29:59;8.23;;;7.32;;
3034;SDS011;1527;48.836;9.172;2022-08-14T05:32:34;6.72;;;6.07;;
3034;SDS011;1527;48.836;9.172;2022-08-14T05:35:06;6.38;;;5.78;;
3034;SDS011;1527;48.836;9.172;2022-08-14T05:37:37;6.35;;;5.80;;
3034;SDS011;1527;48.836;9.172;2022-08-14T05:40:12;6.60;;;5.77;;
3034;SDS011;1527;48.836;9.172;2022-08-14T05:42:41;6.70;;;6.10;;
3034;SDS011;1527;48.836;9.172;2022-08-14T05:45:19;7.13;;;6.10;;
3034;SDS011;1527;48.836;9.172;2022-08-14T05:47:51;12.20;;;6.10;;
3034;SDS011;1527;48.836;9.172;2022-08-14T05:50:21;6.37;;;5.80;;
3034;SDS011;1527;48.836;9.172;2022-08-14T05:52:55;9.50;;;5.80;;
3034;SDS011;1527;48.836;9.172;2022-08-14T05:55:24;10.20;;;5.90;;
3034;SDS011;1527;48.836;9.172;2022-08-14T05:57:56;7.80;;;5.67;;
3034;SDS011;1527;48.836;9.172;2022-08-14T06:00:31;5.17;;;4.67;;
3034;SDS011;1527;48.836;9.172;2022-08-14T06:03:06;6.40;;;5.80;;
3034;SDS011;1527;48.836;9.172;2022-08-14T06:05:42;11.33;;;5.80;;
3034;SDS011;1527;48.836;9.172;2022-08-14T06:08:18;6.67;;;5.43;;
3034;SDS011;1527;48.836;9.172;2022-08-14T06:11:07;6.27;;;5.50;;
3034;SDS011;1527;48.836;9.172;2022-08-14T06:13:46;6.13;;;5.53;;
3034;SDS011;1527;48.836;9.172;2022-08-14T06:16:18;7.50;;;4.93;;
3034;SDS011;1527;48.836;9.172;2022-08-14T06:18:47;6.70;;;6.10;;
3034;SDS011;1527;48.836;9.172;2022-08-14T06:21:21;5.57;;;5.07;;
3034;SDS011;1527;48.836;9.172;2022-08-14T06:23:52;5.83;;;5.20;;
3034;SDS011;1527;48.836;9.172;2022-08-14T06:26:21;9.00;;;5.20;;
3034;SDS011;1527;48.836;9.172;2022-08-14T06:28:56;7.60;;;5.60;;
3034;SDS011;1527;48.836;9.172;2022-08-14T06:31:26;6.10;;;5.20;;
3034;SDS011;1527;48.836;9.172;2022-08-14T06:33:55;5.90;;;4.87;;
3034;SDS011;1527;48.836;9.172;2022-08-14T06:36:45;5.70;;;5.20;;
3034;SDS011;1527;48.836;9.172;2022-08-14T06:39:15;5.50;;;4.80;;
3034;SDS011;1527;48.836;9.172;2022-08-14T06:42:03;5.77;;;5.03;;
3034;SDS011;1527;48.836;9.172;2022-08-14T06:44:33;4.87;;;4.37;;
3034;SDS011;1527;48.836;9.172;2022-08-14T06:47:02;4.27;;;3.97;;
3034;SDS011;1527;48.836;9.172;2022-08-14T06:49:32;4.63;;;4.30;;
3034;SDS011;1527;48.836;9.172;2022-08-14T06:52:23;4.97;;;4.57;;
3034;SDS011;1527;48.836;9.172;2022-08-14T06:54:55;6.30;;;4.87;;
3034;SDS011;1527;48.836;9.172;2022-08-14T06:57:32;6.37;;;3.97;;
3034;SDS011;1527;48.836;9.172;2022-08-14T07:00:05;4.20;;;3.80;;
3034;SDS011;1527;48.836;9.172;2022-08-14T07:02:53;4.43;;;4.03;;
3034;SDS011;1527;48.836;9.172;2022-08-14T07:05:40;4.30;;;3.40;;
3034;SDS011;1527;48.836;9.172;2022-08-14T07:08:27;7.80;;;4.10;;
3034;SDS011;1527;48.836;9.172;2022-08-14T07:10:58;5.00;;;4.50;;
3034;SDS011;1527;48.836;9.172;2022-08-14T07:13:30;4.07;;;3.40;;
3034;SDS011;1527;48.836;9.172;2022-08-14T07:16:00;5.17;;;4.07;;
3034;SDS011;1527;48.836;9.172;2022-08-14T07:18:32;5.70;;;4.50;;
3034;SDS011;1527;48.836;9.172;2022-08-14T07:21:07;6.57;;;4.07;;
3034;SDS011;1527;48.836;9.172;2022-08-14T07:23:38;4.37;;;4.07;;
3034;SDS011;1527;48.836;9.172;2022-08-14T07:26:10;5.00;;;3.67;;
3034;SDS011;1527;48.836;9.172;2022-08-14T07:28:41;3.87;;;3.57;;
3034;SDS011;1527;48.836;9.172;2022-08-14T07:31:11;5.30;;;4.80;;
3034;SDS011;1527;48.836;9.172;2022-08-14T07:33:43;5.23;;;3.80;;
3034;SDS011;1527;48.836;9.172;2022-08-14T07:36:18;4.57;;;4.17;;
3034;SDS011;1527;48.836;9.172;2022-08-14T07:38:58;4.47;;;4.00;;
3034;SDS011;1527;48.836;9.172;2022-08-14T07:41:39;3.67;;;3.47;;
3034;SDS011;1527;48.836;9.172;2022-08-14T07:44:10;6.20;;;4.40;;
3034;SDS011;1527;48.836;9.172;2022-08-14T07:46:59;4.57;;;4.10;;
3034;SDS011;1527;48.836;9.172;2022-08-14T07:49:29;3.70;;;3.40;;
3034;SDS011;1527;48.836;9.172;2022-08-14T07:52:00;5.43;;;4.20;;
3034;SDS011;1527;48.836;9.172;2022-08-14T07:54:31;4.33;;;4.03;;
3034;SDS011;1527;48.836;9.172;2022-08-14T07:57:01;4.43;;;3.57;;
3034;SDS011;1527;48.836;9.172;2022-08-14T07:59:38;5.53;;;3.70;;
3034;SDS011;1527;48.836;9.172;2022-08-14T08:02:14;3.83;;;3.50;;
3034;SDS011;1527;48.836;9.172;2022-08-14T08:04:48;4.27;;;3.97;;
3034;SDS011;1527;48.836;9.172;2022-08-14T08:07:28;4.03;;;3.73;;
3034;SDS011;1527;48.836;9.172;2022-08-14T08:10:04;4.73;;;4.10;;
3034;SDS011;1527;48.836;9.172;2022-08-14T08:13:12;3.77;;;3.47;;
3034;SDS011;1527;48.836;9.172;2022-08-14T08:15:43;3.80;;;3.50;;
3034;SDS011;1527;48.836;9.172;2022-08-14T08:18:15;3.47;;;3.17;;
3034;SDS011;1527;48.836;9.172;2022-08-14T08:20:54;3.60;;;3.30;;
3034;SDS011;1527;48.836;9.172;2022-08-14T08:23:27;8.17;;;4.40;;
3034;SDS011;1527;48.836;9.172;2022-08-14T08:26:18;3.83;;;3.53;;
3034;SDS011;1527;48.836;9.172;2022-08-14T08:28:54;5.40;;;3.53;;
3034;SDS011;1527;48.836;9.172;2022-08-14T08:31:24;4.57;;;3.40;;
3034;SDS011;1527;48.836;9.172;2022-08-14T08:33:59;4.20;;;3.90;;
3034;SDS011;1527;48.836;9.172;2022-08-14T08:36:38;3.80;;;3.40;;
3034;SDS011;1527;48.836;9.172;2022-08-14T08:39:12;4.23;;;3.87;;
3034;SDS011;1527;48.836;9.172;2022-08-14T08:41:50;4.57;;;4.17;;
3034;SDS011;1527;48.836;9.172;2022-08-14T08:44:20;4.67;;;3.70;;
3034;SDS011;1527;48.836;9.172;2022-08-14T08:47:00;3.90;;;3.63;;
3034;SDS011;1527;48.836;9.172;2022-08-14T08:49:36;3.70;;;3.40;;
3034;SDS011;1527;48.836;9.172;2022-08-14T08:52:25;3.60;;;3.30;;
3034;SDS011;1527;48.836;9.172;2022-08-14T08:54:58;3.67;;;3.30;;
3034;SDS011;1527;48.836;9.172;2022-08-14T08:57:34;4.03;;;3.73;;
3034;SDS011;1527;48.836;9.172;2022-08-14T09:00:11;5.10;;;3.67;;
3034;SDS011;1527;48.836;9.172;2022-08-14T09:02:53;3.57;;;3.27;;
3034;SDS011;1527;48.836;9.172;2022-08-14T09:05:30;4.10;;;3.80;;
3034;SDS011;1527;48.836;9.172;2022-08-14T09:08:09;3.77;;;3.37;;
3034;SDS011;1527;48.836;9.172;2022-08-14T09:10:59;3.20;;;3.00;;
3034;SDS011;1527;48.836;9.172;2022-08-14T09:13:49;3.93;;;3.63;;
3034;SDS011;1527;48.836;9.172;2022-08-14T09:16:20;3.50;;;3.30;;
3034;SDS011;1527;48.836;9.172;2022-08-14T09:18:52;4.03;;;3.73;;
3034;SDS011;1527;48.836;9.172;2022-08-14T09:21:22;5.83;;;3.60;;
3034;SDS011;1527;48.836;9.172;2022-08-14T09:23:57;9.60;;;4.10;;
3034;SDS011;1527;48.836;9.172;2022-08-14T09:26:48;3.77;;;3.47;;
3034;SDS011;1527;48.836;9.172;2022-08-14T09:29:20;4.10;;;3.70;;
3034;SDS011;1527;48.836;9.172;2022-08-14T09:31:55;4.40;;;4.07;;
3034;SDS011;1527;48.836;9.172;2022-08-14T09:34:32;3.77;;;3.40;;
3034;SDS011;1527;48.836;9.172;2022-08-14T09:37:30;4.70;;;4.30;;
3034;SDS011;1527;48.836;9.172;2022-08-14T09:40:07;4.00;;;3.70;;
3034;SDS011;1527;48.836;9.172;2022-08-14T09:42:51;4.03;;;3.63;;
3034;SDS011;1527;48.836;9.172;2022-08-14T09:45:34;3.83;;;3.47;;
3034;SDS011;1527;48.836;9.172;2022-08-14T09:48:20;4.20;;;3.70;;
3034;SDS011;1527;48.836;9.172;2022-08-14T09:50:54;4.30;;;4.00;;
3034;SDS011;1527;48.836;9.172;2022-08-14T09:53:36;5.60;;;3.97;;
3034;SDS011;1527;48.836;9.172;2022-08-14T09:56:30;5.33;;;3.67;;
3034;SDS011;1527;48.836;9.172;2022-08-14T09:59:12;4.13;;;3.47;;
3034;SDS011;1527;48.836;9.172;2022-08-14T10:01:50;3.60;;;3.40;;
3034;SDS011;1527;48.836;9.172;2022-08-14T10:04:21;13.27;;;4.70;;
3034;SDS011;1527;48.836;9.172;2022-08-14T10:07:03;5.37;;;4.00;;
3034;SDS011;1527;48.836;9.172;2022-08-14T10:09:44;5.13;;;3.83;;
3034;SDS011;1527;48.836;9.172;2022-08-14T10:12:26;5.20;;;4.13;;
3034;SDS011;1527;48.836;9.172;2022-08-14T10:15:16;4.20;;;3.80;;
3034;SDS011;1527;48.836;9.172;2022-08-14T10:21:01;3.97;;;3.77;;
3034;SDS011;1527;48.836;9.172;2022-08-14T10:23:40;4.03;;;3.73;;
3034;SDS011;1527;48.836;9.172;2022-08-14T10:26:16;4.30;;;4.00;;
3034;SDS011;1527;48.836;9.172;2022-08-14T10:28:49;4.97;;;3.70;;
3034;SDS011;1527;48.836;9.172;2022-08-14T10:31:42;4.50;;;3.90;;
3034;SDS011;1527;48.836;9.172;2022-08-14T10:34:18;4.17;;;3.87;;
3034;SDS011;1527;48.836;9.172;2022-08-14T10:37:06;4.10;;;3.80;;
3034;SDS011;1527;48.836;9.172;2022-08-14T10:39:41;3.73;;;3.43;;
3034;SDS011;1527;48.836;9.172;2022-08-14T10:42:35;4.80;;;3.87;;
3034;SDS011;1527;48.836;9.172;2022-08-14T10:45:16;4.90;;;4.10;;
3034;SDS011;1527;48.836;9.172;2022-08-14T10:47:48;6.60;;;3.80;;
3034;SDS011;1527;48.836;9.172;2022-08-14T10:50:41;4.30;;;3.90;;
3034;SDS011;1527;48.836;9.172;2022-08-14T10:53:26;4.40;;;4.10;;
3034;SDS011;1527;48.836;9.172;2022-08-14T10:55:59;4.93;;;4.43;;
3034;SDS011;1527;48.836;9.172;2022-08-14T10:58:48;3.73;;;3.50;;
3034;SDS011;1527;48.836;9.172;2022-08-14T11:01:30;4.17;;;3.73;;
3034;SDS011;1527;48.836;9.172;2022-08-14T11:04:18;4.10;;;3.80;;
3034;SDS011;1527;48.836;9.172;2022-08-14T11:06:55;8.63;;;4.10;;
3034;SDS011;1527;48.836;9.172;2022-08-14T11:09:24;4.37;;;4.07;;
3034;SDS011;1527;48.836;9.172;2022-08-14T11:11:58;4.00;;;3.80;;
3034;SDS011;1527;48.836;9.172;2022-08-14T11:14:51;4.60;;;4.20;;
3034;SDS011;1527;48.836;9.172;2022-08-14T11:17:37;5.23;;;4.70;;
3034;SDS011;1527;48.836;9.172;2022-08-14T11:20:12;4.73;;;4.33;;
3034;SDS011;1527;48.836;9.172;2022-08-14T11:22:46;3.40;;;3.20;;
3034;SDS011;1527;48.836;9.172;2022-08-14T11:25:28;4.60;;;4.30;;
3034;SDS011;1527;48.836;9.172;2022-08-14T11:28:11;3.93;;;3.43;;
3034;SDS011;1527;48.836;9.172;2022-08-14T11:30:48;4.33;;;4.00;;
3034;SDS011;1527;48.836;9.172;2022-08-14T11:33:21;4.73;;;4.33;;
3034;SDS011;1527;48.836;9.172;2022-08-14T11:35:50;5.13;;;4.63;;
3034;SDS011;1527;48.836;9.172;2022-08-14T11:38:37;4.40;;;4.10;;
3034;SDS011;1527;48.836;9.172;2022-08-14T11:41:28;3.87;;;3.57;;
3034;SDS011;1527;48.836;9.172;2022-08-14T11:44:12;5.40;;;4.33;;
3034;SDS011;1527;48.836;9.172;2022-08-14T11:47:14;4.57;;;4.17;;
3034;SDS011;1527;48.836;9.172;2022-08-14T11:49:55;5.23;;;4.20;;
3034;SDS011;1527;48.836;9.172;2022-08-14T11:52:34;4.40;;;3.93;;
3034;SDS011;1527;48.836;9.172;2022-08-14T11:55:08;4.40;;;4.00;;
3034;SDS011;1527;48.836;9.172;2022-08-14T11:57:40;5.03;;;4.37;;
3034;SDS011;1527;48.836;9.172;2022-08-14T12:00:26;4.40;;;4.10;;
3034;SDS011;1527;48.836;9.172;2022-08-14T12:03:07;3.80;;;3.60;;
3034;SDS011;1527;48.836;9.172;2022-08-14T12:06:20;4.67;;;3.80;;
3034;SDS011;1527;48.836;9.172;2022-08-14T12:09:11;4.43;;;3.97;;
3034;SDS011;1527;48.836;9.172;2022-08-14T12:11:57;4.03;;;3.73;;
3034;SDS011;1527;48.836;9.172;2022-08-14T12:14:27;7.30;;;4.33;;
3034;SDS011;1527;48.836;9.172;2022-08-14T12:17:03;4.30;;;4.00;;
3034;SDS011;1527;48.836;9.172;2022-08-14T12:19:43;4.30;;;3.90;;
3034;SDS011;1527;48.836;9.172;2022-08-14T12:22:33;4.67;;;4.03;;
3034;SDS011;1527;48.836;9.172;2022-08-14T12:25:10;4.97;;;3.90;;
3034;SDS011;1527;48.836;9.172;2022-08-14T12:27:48;5.33;;;3.53;;
3034;SDS011;1527;48.836;9.172;2022-08-14T12:30:26;4.27;;;3.97;;
3034;SDS011;1527;48.836;9.172;2022-08-14T12:33:25;4.10;;;3.70;;
3034;SDS011;1527;48.836;9.172;2022-08-14T12:36:01;7.57;;;4.23;;
3034;SDS011;1527;48.836;9.172;2022-08-14T12:38:39;4.13;;;3.83;;
3034;SDS011;1527;48.836;9.172;2022-08-14T12:41:47;3.90;;;3.60;;
3034;SDS011;1527;48.836;9.172;2022-08-14T12:44:31;7.07;;;3.60;;
3034;SDS011;1527;48.836;9.172;2022-08-14T12:47:04;3.93;;;3.67;;
3034;SDS011;1527;48.836;9.172;2022-08-14T12:49:53;3.70;;;3.40;;
3034;SDS011;1527;48.836;9.172;2022-08-14T12:52:28;3.60;;;3.30;;
3034;SDS011;1527;48.836;9.172;2022-08-14T12:55:20;3.50;;;3.30;;
3034;SDS011;1527;48.836;9.172;2022-08-14T12:58:15;3.97;;;3.63;;
3034;SDS011;1527;48.836;9.172;2022-08-14T13:01:24;3.63;;;3.33;;
3034;SDS011;1527;48.836;9.172;2022-08-14T13:04:04;3.93;;;3.63;;
3034;SDS011;1527;48.836;9.172;2022-08-14T13:06:37;3.60;;;3.30;;
3034;SDS011;1527;48.836;9.172;2022-08-14T13:09:11;4.20;;;3.80;;
3034;SDS011;1527;48.836;9.172;2022-08-14T13:11:43;3.80;;;3.07;;
3034;SDS011;1527;48.836;9.172;2022-08-14T13:14:37;3.80;;;3.50;;
3034;SDS011;1527;48.836;9.172;2022-08-14T13:17:08;3.67;;;3.37;;
3034;SDS011;1527;48.836;9.172;2022-08-14T13:19:39;3.70;;;3.40;;
3034;SDS011;1527;48.836;9.172;2022-08-14T13:22:15;3.37;;;3.13;;
3034;SDS011;1527;48.836;9.172;2022-08-14T13:24:59;4.30;;;3.33;;
3034;SDS011;1527;48.836;9.172;2022-08-14T13:27:32;3.40;;;3.10;;
3034;SDS011;1527;48.836;9.172;2022-08-14T13:30:06;3.20;;;3.00;;
3034;SDS011;1527;48.836;9.172;2022-08-14T13:32:52;3.20;;;3.00;;
3034;SDS011;1527;48.836;9.172;2022-08-14T13:35:25;4.20;;;3.07;;
3034;SDS011;1527;48.836;9.172;2022-08-14T13:37:55;3.00;;;2.80;;
3034;SDS011;1527;48.836;9.172;2022-08-14T13:40:25;3.50;;;3.30;;
3034;SDS011;1527;48.836;9.172;2022-08-14T13:42:56;3.03;;;2.83;;
3034;SDS011;1527;48.836;9.172;2022-08-14T13:45:25;3.10;;;2.80;;
3034;SDS011;1527;48.836;9.172;2022-08-14T13:48:16;3.17;;;2.87;;
3034;SDS011;1527;48.836;9.172;2022-08-14T13:50:59;2.83;;;2.63;;
3034;SDS011;1527;48.836;9.172;2022-08-14T13:53:40;2.97;;;2.70;;
3034;SDS011;1527;48.836;9.172;2022-08-14T13:56:34;3.10;;;2.40;;
3034;SDS011;1527;48.836;9.172;2022-08-14T13:59:08;3.17;;;2.87;;
3034;SDS011;1527;48.836;9.172;2022-08-14T14:01:42;3.17;;;2.93;;
3034;SDS011;1527;48.836;9.172;2022-08-14T14:04:19;4.10;;;3.80;;
3034;SDS011;1527;48.836;9.172;2022-08-14T14:06:52;3.53;;;3.23;;
3034;SDS011;1527;48.836;9.172;2022-08-14T14:09:24;3.80;;;3.30;;
3034;SDS011;1527;48.836;9.172;2022-08-14T14:12:17;3.10;;;2.90;;
3034;SDS011;1527;48.836;9.172;2022-08-14T14:15:08;3.67;;;3.37;;
3034;SDS011;1527;48.836;9.172;2022-08-14T14:17:40;3.53;;;3.23;;
3034;SDS011;1527;48.836;9.172;2022-08-14T14:20:14;3.70;;;3.50;;
3034;SDS011;1527;48.836;9.172;2022-08-14T14:23:02;3.30;;;3.10;;
3034;SDS011;1527;48.836;9.172;2022-08-14T14:25:39;3.60;;;3.30;;
3034;SDS011;1527;48.836;9.172;2022-08-14T14:28:24;3.23;;;3.03;;
3034;SDS011;1527;48.836;9.172;2022-08-14T14:30:59;18.53;;;3.47;;
3034;SDS011;1527;48.836;9.172;2022-08-14T14:33:33;3.10;;;2.90;;
3034;SDS011;1527;48.836;9.172;2022-08-14T14:36:18;2.93;;;2.73;;
3034;SDS011;1527;48.836;9.172;2022-08-14T14:38:53;2.93;;;2.73;;
3034;SDS011;1527;48.836;9.172;2022-08-14T14:41:26;3.20;;;2.90;;
3034;SDS011;1527;48.836;9.172;2022-08-14T14:44:10;2.83;;;2.63;;
3034;SDS011;1527;48.836;9.172;2022-08-14T14:46:43;3.30;;;3.00;;
3034;SDS011;1527;48.836;9.172;2022-08-14T14:49:19;5.77;;;3.60;;
3034;SDS011;1527;48.836;9.172;2022-08-14T14:52:09;3.40;;;3.10;;
3034;SDS011;1527;48.836;9.172;2022-08-14T14:54:54;3.50;;;3.00;;
3034;SDS011;1527;48.836;9.172;2022-08-14T14:57:25;2.93;;;2.73;;
3034;SDS011;1527;48.836;9.172;2022-08-14T15:00:03;3.67;;;2.47;;
3034;SDS011;1527;48.836;9.172;2022-08-14T15:02:40;3.50;;;3.20;;
3034;SDS011;1527;48.836;9.172;2022-08-14T15:05:13;2.50;;;2.40;;
3034;SDS011;1527;48.836;9.172;2022-08-14T15:07:47;3.23;;;3.03;;
3034;SDS011;1527;48.836;9.172;2022-08-14T15:10:19;3.10;;;2.90;;
3034;SDS011;1527;48.836;9.172;2022-08-14T15:12:56;3.20;;;3.00;;
3034;SDS011;1527;48.836;9.172;2022-08-14T15:15:31;2.80;;;2.50;;
3034;SDS011;1527;48.836;9.172;2022-08-14T15:18:09;2.90;;;2.70;;
3034;SDS011;1527;48.836;9.172;2022-08-14T15:20:59;3.10;;;2.90;;
3034;SDS011;1527;48.836;9.172;2022-08-14T15:23:31;2.90;;;2.70;;
3034;SDS011;1527;48.836;9.172;2022-08-14T15:26:11;3.33;;;3.13;;
3034;SDS011;1527;48.836;9.172;2022-08-14T15:28:59;3.43;;;3.20;;
3034;SDS011;1527;48.836;9.172;2022-08-14T15:31:32;4.10;;;3.80;;
3034;SDS011;1527;48.836;9.172;2022-08-14T15:34:03;3.63;;;3.30;;
3034;SDS011;1527;48.836;9.172;2022-08-14T15:37:00;2.93;;;2.73;;
3034;SDS011;1527;48.836;9.172;2022-08-14T15:39:32;4.80;;;4.40;;
3034;SDS011;1527;48.836;9.172;2022-08-14T15:42:05;3.87;;;3.57;;
3034;SDS011;1527;48.836;9.172;2022-08-14T15:44:43;3.10;;;2.90;;
3034;SDS011;1527;48.836;9.172;2022-08-14T15:47:24;3.10;;;2.90;;
3034;SDS011;1527;48.836;9.172;2022-08-14T15:49:56;2.73;;;2.53;;
3034;SDS011;1527;48.836;9.172;2022-08-14T15:52:28;3.27;;;3.07;;
3034;SDS011;1527;48.836;9.172;2022-08-14T15:55:04;3.93;;;3.63;;
3034;SDS011;1527;48.836;9.172;2022-08-14T15:57:39;3.50;;;3.20;;
3034;SDS011;1527;48.836;9.172;2022-08-14T16:00:29;2.90;;;2.70;;
3034;SDS011;1527;48.836;9.172;2022-08-14T16:03:21;3.63;;;3.33;;
3034;SDS011;1527;48.836;9.172;2022-08-14T16:06:07;5.40;;;3.00;;
3034;SDS011;1527;48.836;9.172;2022-08-14T16:08:44;4.00;;;3.13;;
3034;SDS011;1527;48.836;9.172;2022-08-14T16:11:18;3.00;;;2.80;;
3034;SDS011;1527;48.836;9.172;2022-08-14T16:13:48;3.50;;;3.23;;
3034;SDS011;1527;48.836;9.172;2022-08-14T16:16:24;3.13;;;2.90;;
3034;SDS011;1527;48.836;9.172;2022-08-14T16:19:17;3.43;;;3.17;;
3034;SDS011;1527;48.836;9.172;2022-08-14T16:21:50;3.23;;;3.03;;
3034;SDS011;1527;48.836;9.172;2022-08-14T16:24:41;2.80;;;2.60;;
3034;SDS011;1527;48.836;9.172;2022-08-14T16:27:31;3.33;;;3.13;;